Station Historical Data
Daily Summary for March 20, 2017 Units:  Metric    English   Both
« Previous Day
Next Day »
Daily Weekly Monthly Yearly Custom
  High: Low: Average:
Temperature: 4.8 °C -4 °C 1.3 °C
Dew Point: -0.2 °C -5.1 °C -1.7 °C
Humidity: 93% 68% 81%
Wind Speed: 14.5km/h 0km/h 2.6km/h
Wind Gust: 19.3km/h - -
Wind- - SW
Pressure: 1026 hPa 1016.5 hPa -
Precipitation: 0 mm    
Historical Graphs
 
 
Tabular Data for March 20, 2017
Time Temperature Dew Point Pressure Wind Wind Speed Wind Gust Humidity Rainfall Rate (Hourly)
00:04 -1.1 °C -2.6 °C 1026 hPa SW 3.2 km/h 4.8 km/h 90% 0 mm
00:09 -1.1 °C -2.6 °C 1026 hPa SW 3.2 km/h 4.8 km/h 90% 0 mm
00:14 -1 °C -2.4 °C 1026 hPa SW 1.6 km/h 4.8 km/h 90% 0 mm
00:19 -1.1 °C -2.5 °C 1026 hPa SW 1.6 km/h 6.4 km/h 90% 0 mm
00:24 -1 °C -2.4 °C 1026 hPa SW 1.6 km/h 6.4 km/h 90% 0 mm
00:29 -1 °C -2.4 °C 1025.6 hPa SSW 4.8 km/h 4.8 km/h 90% 0 mm
00:34 -1.1 °C -2.5 °C 1025.6 hPa SSW 1.6 km/h 4.8 km/h 90% 0 mm
00:39 -1.2 °C -2.7 °C 1025.6 hPa Calm   4.8 km/h 90% 0 mm
00:44 -1.3 °C -2.6 °C 1025.6 hPa SSW 1.6 km/h 4.8 km/h 91% 0 mm
00:49 -1.3 °C -2.6 °C 1025.3 hPa SW 1.6 km/h 4.8 km/h 91% 0 mm
00:54 -1.4 °C -2.7 °C 1025.3 hPa SW 1.6 km/h 4.8 km/h 91% 0 mm
00:59 -1.6 °C -2.9 °C 1025.3 hPa SSW 1.6 km/h 3.2 km/h 91% 0 mm
01:04 -1.9 °C -3.2 °C 1024.9 hPa Calm   3.2 km/h 91% 0 mm
01:09 -2.1 °C -3.3 °C 1024.9 hPa Calm     91% 0 mm
01:14 -2.2 °C -3.4 °C 1024.9 hPa Calm     91% 0 mm
01:19 -2.2 °C -3.5 °C 1024.9 hPa Calm     91% 0 mm
01:24 -2.2 °C -3.5 °C 1024.9 hPa Calm     91% 0 mm
01:29 -2.4 °C -3.7 °C 1024.9 hPa Calm     91% 0 mm
01:34 -2.4 °C -3.6 °C 1024.9 hPa Calm     92% 0 mm
01:39 -2.4 °C -3.6 °C 1024.9 hPa Calm     92% 0 mm
01:44 -2.3 °C -3.4 °C 1024.9 hPa SW 1.6 km/h 4.8 km/h 92% 0 mm
01:49 -1.8 °C -2.8 °C 1024.9 hPa SW 1.6 km/h 6.4 km/h 93% 0 mm
01:54 -1.3 °C -2.3 °C 1024.9 hPa SW 3.2 km/h 6.4 km/h 93% 0 mm
01:59 -1.2 °C -2.2 °C 1024.9 hPa SW 3.2 km/h 6.4 km/h 93% 0 mm
02:04 -1.1 °C -2.2 °C 1024.9 hPa SW 3.2 km/h 6.4 km/h 92% 0 mm
02:09 -1.1 °C -2.2 °C 1024.9 hPa SW 1.6 km/h 4.8 km/h 92% 0 mm
02:14 -1.3 °C -2.4 °C 1024.9 hPa Calm   3.2 km/h 92% 0 mm
02:19 -1.4 °C -2.5 °C 1024.9 hPa SW 1.6 km/h 3.2 km/h 92% 0 mm
02:24 -1.4 °C -2.6 °C 1024.9 hPa Calm   3.2 km/h 92% 0 mm
02:29 -1.5 °C -2.6 °C 1024.9 hPa Calm   3.2 km/h 92% 0 mm
02:34 -1.6 °C -2.6 °C 1024.9 hPa Calm   3.2 km/h 93% 0 mm
02:39 -1.7 °C -2.7 °C 1024.9 hPa Calm     93% 0 mm
02:44 -1.8 °C -2.9 °C 1024.9 hPa Calm     92% 0 mm
02:49 -1.9 °C -3 °C 1024.9 hPa Calm     92% 0 mm
02:54 -2.1 °C -3.2 °C 1024.6 hPa Calm     92% 0 mm
02:59 -2.2 °C -3.3 °C 1024.6 hPa Calm     92% 0 mm
03:04 -2.4 °C -3.5 °C 1024.6 hPa Calm     92% 0 mm
03:14 -2.7 °C -3.8 °C 1024.9 hPa Calm     92% 0 mm
03:19 -2.8 °C -3.9 °C 1024.6 hPa Calm     92% 0 mm
03:24 -2.8 °C -3.9 °C 1024.6 hPa Calm     92% 0 mm
03:29 -3 °C -4.1 °C 1024.6 hPa Calm     92% 0 mm
03:34 -3.1 °C -4.2 °C 1024.6 hPa Calm     92% 0 mm
03:39 -3.3 °C -4.4 °C 1024.6 hPa Calm     92% 0 mm
03:44 -3.5 °C -4.6 °C 1024.6 hPa Calm     92% 0 mm
03:49 -3.4 °C -4.4 °C 1024.6 hPa Calm     93% 0 mm
03:54 -3.6 °C -4.7 °C 1024.9 hPa Calm     92% 0 mm
03:59 -3.5 °C -4.4 °C 1024.9 hPa Calm     93% 0 mm
04:04 -3.4 °C -4.6 °C 1024.9 hPa Calm     92% 0 mm
04:09 -3.4 °C -4.4 °C 1024.9 hPa Calm     93% 0 mm
04:14 -3.3 °C -4.2 °C 1024.9 hPa Calm     93% 0 mm
04:19 -3.2 °C -4.1 °C 1024.9 hPa Calm     93% 0 mm
04:24 -3.2 °C -4.1 °C 1024.9 hPa Calm     93% 0 mm
04:29 -3.2 °C -4.1 °C 1024.9 hPa Calm     93% 0 mm
04:34 -3.2 °C -4.1 °C 1024.9 hPa Calm     93% 0 mm
04:39 -3.3 °C -4.4 °C 1024.9 hPa Calm     92% 0 mm
04:44 -3.3 °C -4.3 °C 1024.6 hPa Calm     93% 0 mm
04:49 -3.4 °C -4.6 °C 1024.9 hPa Calm     92% 0 mm
04:54 -3.4 °C -4.3 °C 1024.6 hPa Calm     93% 0 mm
04:59 -3.4 °C -4.4 °C 1024.6 hPa Calm     93% 0 mm
05:04 -3.4 °C -4.3 °C 1024.6 hPa Calm     93% 0 mm
05:09 -3.4 °C -4.5 °C 1024.6 hPa Calm     92% 0 mm
05:14 -3.5 °C -4.6 °C 1024.6 hPa Calm     92% 0 mm
05:19 -3.5 °C -4.4 °C 1024.6 hPa Calm     93% 0 mm
05:24 -3.6 °C -4.7 °C 1024.6 hPa Calm     92% 0 mm
05:29 -3.5 °C -4.6 °C 1024.3 hPa Calm     92% 0 mm
05:34 -3.3 °C -4.3 °C 1024.3 hPa South 1.6 km/h 4.8 km/h 93% 0 mm
05:39 -3.3 °C -4.4 °C 1024.3 hPa South 1.6 km/h 4.8 km/h 92% 0 mm
05:44 -3.6 °C -4.7 °C 1024.3 hPa Calm     92% 0 mm
05:49 -3.8 °C -4.9 °C 1024.3 hPa Calm     92% 0 mm
05:54 -3.9 °C -5 °C 1024.3 hPa Calm     92% 0 mm
05:59 -4 °C -5.1 °C 1024.3 hPa Calm     92% 0 mm
06:04 -3.9 °C -5 °C 1024.3 hPa Calm     92% 0 mm
06:09 -3.9 °C -5 °C 1024.3 hPa Calm     92% 0 mm
06:14 -3.8 °C -4.7 °C 1023.9 hPa Calm     93% 0 mm
06:19 -3.7 °C -4.8 °C 1023.9 hPa Calm     92% 0 mm
06:24 -3.6 °C -4.7 °C 1023.9 hPa Calm     92% 0 mm
06:29 -3.3 °C -4.4 °C 1023.9 hPa South 1.6 km/h 3.2 km/h 92% 0 mm
06:34 -2.9 °C -3.9 °C 1023.6 hPa SSE 3.2 km/h 4.8 km/h 93% 0 mm
06:39 -2.7 °C -3.7 °C 1023.6 hPa SSE 3.2 km/h 4.8 km/h 93% 0 mm
06:44 -2.9 °C -4 °C 1023.9 hPa Calm   4.8 km/h 92% 0 mm
06:49 -3.2 °C -4.3 °C 1023.9 hPa Calm     92% 0 mm
06:54 -3.4 °C -4.7 °C 1023.9 hPa Calm     91% 0 mm
06:59 -3.3 °C -4.4 °C 1023.9 hPa Calm     92% 0 mm
07:04 -3.1 °C -4.2 °C 1023.6 hPa Calm   4.8 km/h 92% 0 mm
07:09 -2.8 °C -3.9 °C 1023.6 hPa SSE 1.6 km/h 4.8 km/h 92% 0 mm
07:14 -2.6 °C -3.7 °C 1023.6 hPa South 1.6 km/h 4.8 km/h 92% 0 mm
07:19 -2.3 °C -3.4 °C 1023.2 hPa South 1.6 km/h 4.8 km/h 92% 0 mm
07:24 -2.3 °C -3.6 °C 1023.2 hPa South 1.6 km/h 3.2 km/h 91% 0 mm
07:29 -2.4 °C -3.7 °C 1023.2 hPa SSE 1.6 km/h 3.2 km/h 91% 0 mm
07:34 -2.3 °C -3.6 °C 1023.2 hPa Calm   3.2 km/h 91% 0 mm
07:39 -2.2 °C -3.4 °C 1023.2 hPa Calm     91% 0 mm
07:44 -1.9 °C -3.2 °C 1023.2 hPa Calm     91% 0 mm
07:49 -1.7 °C -2.9 °C 1022.9 hPa Calm     91% 0 mm
07:59 -1.4 °C -2.7 °C 1022.9 hPa Calm   4.8 km/h 91% 0 mm
08:04 -1.3 °C -2.8 °C 1022.6 hPa SE 3.2 km/h 4.8 km/h 90% 0 mm
08:09 -1.3 °C -2.7 °C 1022.6 hPa SSE 1.6 km/h 4.8 km/h 90% 0 mm
08:14 -1.1 °C -2.6 °C 1022.6 hPa SSE 3.2 km/h 6.4 km/h 90% 0 mm
08:19 -0.9 °C -2.3 °C 1022.6 hPa SSE 3.2 km/h 6.4 km/h 90% 0 mm
08:24 -0.8 °C -2.4 °C 1022.2 hPa SSE 4.8 km/h 11.3 km/h 89% 0 mm
08:29 -0.6 °C -2.2 °C 1022.2 hPa SSE 4.8 km/h 11.3 km/h 89% 0 mm
08:34 -0.5 °C -2.1 °C 1022.2 hPa SSE 3.2 km/h 8 km/h 89% 0 mm
08:39 -0.3 °C -2.1 °C 1022.2 hPa SSW 4.8 km/h 6.4 km/h 88% 0 mm
08:44 -0.2 °C -1.9 °C 1022.2 hPa SE 3.2 km/h 4.8 km/h 88% 0 mm
08:49 -0.1 °C -2 °C 1022.2 hPa SSE 3.2 km/h 4.8 km/h 87% 0 mm
08:54 0.1 °C -1.8 °C 1021.9 hPa SSE 4.8 km/h 4.8 km/h 87% 0 mm
08:59 0.1 °C -1.9 °C 1022.2 hPa SSE 4.8 km/h 6.4 km/h 86% 0 mm
09:04 0.3 °C -1.7 °C 1022.2 hPa Calm   4.8 km/h 86% 0 mm
09:09 0.4 °C -1.6 °C 1022.2 hPa South 1.6 km/h 4.8 km/h 86% 0 mm
09:14 0.4 °C -1.8 °C 1022.6 hPa SW 3.2 km/h 4.8 km/h 85% 0 mm
09:19 0.4 °C -1.8 °C 1022.6 hPa SW 1.6 km/h 4.8 km/h 85% 0 mm
09:24 0.4 °C -1.7 °C 1022.6 hPa Calm   4.8 km/h 86% 0 mm
09:29 0.6 °C -1.5 °C 1022.6 hPa SW 1.6 km/h 4.8 km/h 86% 0 mm
09:34 0.7 °C -1.5 °C 1022.2 hPa SSW 1.6 km/h 4.8 km/h 85% 0 mm
09:39 0.8 °C -1.4 °C 1022.6 hPa SW 3.2 km/h 4.8 km/h 85% 0 mm
09:44 0.9 °C -1.3 °C 1022.6 hPa Calm   4.8 km/h 85% 0 mm
09:49 1 °C -1.2 °C 1022.9 hPa Calm   3.2 km/h 85% 0 mm
09:54 1.1 °C -1.2 °C 1022.9 hPa Calm   3.2 km/h 85% 0 mm
09:59 1.2 °C -1.2 °C 1022.9 hPa Calm   3.2 km/h 84% 0 mm
10:04 1.3 °C -1.1 °C 1022.9 hPa Calm   3.2 km/h 84% 0 mm
10:09 1.3 °C -1.1 °C 1022.9 hPa South 3.2 km/h 4.8 km/h 84% 0 mm
10:14 1.4 °C -1.1 °C 1022.9 hPa SW 6.4 km/h 6.4 km/h 83% 0 mm
10:19 1.6 °C -1 °C 1022.9 hPa SW 3.2 km/h 6.4 km/h 83% 0 mm
10:24 1.6 °C -1 °C 1022.9 hPa SW 3.2 km/h 8 km/h 83% 0 mm
10:29 1.7 °C -1.1 °C 1022.9 hPa SSW 3.2 km/h 8 km/h 82% 0 mm
10:34 1.7 °C -1.1 °C 1022.9 hPa SSW 3.2 km/h 8 km/h 82% 0 mm
10:39 1.7 °C -1 °C 1022.9 hPa SSW 3.2 km/h 8 km/h 82% 0 mm
10:44 1.8 °C -0.9 °C 1022.9 hPa SSW 3.2 km/h 6.4 km/h 82% 0 mm
10:49 1.9 °C -0.8 °C 1022.9 hPa SSW 3.2 km/h 6.4 km/h 82% 0 mm
10:54 1.9 °C -1 °C 1022.9 hPa South 1.6 km/h 6.4 km/h 81% 0 mm
10:59 2.1 °C -0.9 °C 1022.9 hPa SW 3.2 km/h 8 km/h 81% 0 mm
11:04 2.1 °C -1 °C 1022.9 hPa SW 6.4 km/h 9.7 km/h 80% 0 mm
11:09 2.2 °C -0.9 °C 1022.9 hPa Calm   11.3 km/h 80% 0 mm
11:14 2.2 °C -0.9 °C 1022.9 hPa South 6.4 km/h 11.3 km/h 80% 0 mm
11:19 2.3 °C -0.8 °C 1022.9 hPa West 8 km/h 9.7 km/h 80% 0 mm
11:24 2.3 °C -0.9 °C 1022.9 hPa SW 4.8 km/h 12.9 km/h 79% 0 mm
11:29 2.4 °C -0.8 °C 1022.9 hPa SW 4.8 km/h 12.9 km/h 79% 0 mm
11:39 2.5 °C -0.9 °C 1022.6 hPa South 3.2 km/h 6.4 km/h 78% 0 mm
11:44 2.6 °C -0.9 °C 1022.6 hPa WSW 3.2 km/h 8 km/h 78% 0 mm
11:49 2.7 °C -0.8 °C 1022.6 hPa SSW 1.6 km/h 6.4 km/h 78% 0 mm
11:54 2.7 °C -0.9 °C 1022.2 hPa SSW 6.4 km/h 16.1 km/h 77% 0 mm
11:59 2.6 °C -1 °C 1022.2 hPa SSW 4.8 km/h 16.1 km/h 77% 0 mm
12:04 2.7 °C -0.9 °C 1022.2 hPa SSW 6.4 km/h 12.9 km/h 77% 0 mm
12:09 2.9 °C -0.7 °C 1022.2 hPa SSW 4.8 km/h 12.9 km/h 77% 0 mm
12:14 3.2 °C -0.7 °C 1022.2 hPa SSW 3.2 km/h 6.4 km/h 76% 0 mm
12:19 3.3 °C -0.7 °C 1021.9 hPa Calm   9.7 km/h 75% 0 mm
12:24 3.4 °C -0.6 °C 1021.9 hPa South 3.2 km/h 4.8 km/h 75% 0 mm
12:29 3.4 °C -0.6 °C 1021.9 hPa South 3.2 km/h 8 km/h 75% 0 mm
12:34 3.5 °C -0.7 °C 1021.6 hPa South 4.8 km/h 9.7 km/h 74% 0 mm
12:39 3.6 °C -0.8 °C 1021.6 hPa SSW 4.8 km/h 11.3 km/h 73% 0 mm
12:44 3.6 °C -0.8 °C 1021.6 hPa SSW 4.8 km/h 11.3 km/h 73% 0 mm
12:49 3.7 °C -0.9 °C 1021.9 hPa SW 4.8 km/h 11.3 km/h 72% 0 mm
12:54 3.9 °C -0.7 °C 1021.9 hPa SSW 4.8 km/h 11.3 km/h 72% 0 mm
12:59 4.1 °C -0.7 °C 1021.9 hPa WSW 4.8 km/h 12.9 km/h 71% 0 mm
13:04 3.9 °C -0.9 °C 1021.6 hPa South 3.2 km/h 17.7 km/h 71% 0 mm
13:09 3.9 °C -0.8 °C 1021.9 hPa SSW 4.8 km/h 12.9 km/h 71% 0 mm
13:14 4.1 °C -0.9 °C 1021.9 hPa SW 11.3 km/h 14.5 km/h 70% 0 mm
13:19 4.2 °C -0.8 °C 1021.6 hPa South 4.8 km/h 14.5 km/h 70% 0 mm
13:24 4.4 °C -0.6 °C 1021.6 hPa SSW 4.8 km/h 17.7 km/h 70% 0 mm
13:29 4.6 °C -0.6 °C 1021.6 hPa SW 6.4 km/h 17.7 km/h 69% 0 mm
13:34 4.7 °C -0.6 °C 1021.6 hPa WSW 6.4 km/h 14.5 km/h 69% 0 mm
13:39 4.6 °C -0.8 °C 1021.2 hPa WSW 8 km/h 14.5 km/h 68% 0 mm
13:44 4.6 °C -0.8 °C 1021.2 hPa WSW 8 km/h 19.3 km/h 68% 0 mm
13:49 4.6 °C -0.8 °C 1021.2 hPa WSW 8 km/h 19.3 km/h 68% 0 mm
13:54 4.6 °C -0.7 °C 1021.2 hPa SW 9.7 km/h 17.7 km/h 69% 0 mm
13:59 4.7 °C -0.5 °C 1021.2 hPa WSW 9.7 km/h 14.5 km/h 69% 0 mm
14:04 4.7 °C -0.7 °C 1020.9 hPa South 14.5 km/h 14.5 km/h 68% 0 mm
14:09 4.7 °C -0.7 °C 1020.9 hPa SW 8 km/h 16.1 km/h 68% 0 mm
14:14 4.7 °C -0.5 °C 1020.9 hPa SSW 8 km/h 16.1 km/h 69% 0 mm
14:19 4.7 °C -0.6 °C 1020.9 hPa SSW 4.8 km/h 17.7 km/h 69% 0 mm
14:24 4.6 °C -0.7 °C 1020.5 hPa SW 8 km/h 16.1 km/h 69% 0 mm
14:29 4.6 °C -0.6 °C 1020.5 hPa SSW 11.3 km/h 17.7 km/h 69% 0 mm
14:34 4.4 °C -0.8 °C 1020.2 hPa SW 3.2 km/h 14.5 km/h 69% 0 mm
14:39 4.4 °C -0.6 °C 1020.2 hPa SW 8 km/h 14.5 km/h 70% 0 mm
14:44 4.4 °C -0.8 °C 1020.2 hPa SW 8 km/h 14.5 km/h 69% 0 mm
14:49 4.3 °C -0.7 °C 1020.2 hPa SSW 8 km/h 14.5 km/h 70% 0 mm
14:54 4.3 °C -0.7 °C 1019.9 hPa SW 8 km/h 14.5 km/h 70% 0 mm
14:59 4.3 °C -0.7 °C 1019.9 hPa SW 6.4 km/h 16.1 km/h 70% 0 mm
15:04 4.3 °C -0.7 °C 1019.9 hPa SW 6.4 km/h 16.1 km/h 70% 0 mm
15:09 4.3 °C -0.7 °C 1019.9 hPa SW 6.4 km/h 12.9 km/h 70% 0 mm
15:14 4.4 °C -0.6 °C 1019.9 hPa WSW 6.4 km/h 9.7 km/h 70% 0 mm
15:19 4.4 °C -0.6 °C 1019.5 hPa SW 4.8 km/h 11.3 km/h 70% 0 mm
15:24 4.4 °C -0.6 °C 1019.5 hPa SW 6.4 km/h 12.9 km/h 70% 0 mm
15:29 4.4 °C -0.6 °C 1019.2 hPa SW 4.8 km/h 9.7 km/h 70% 0 mm
15:34 4.5 °C -0.5 °C 1019.2 hPa WSW 6.4 km/h 11.3 km/h 70% 0 mm
15:39 4.5 °C -0.5 °C 1019.2 hPa West 6.4 km/h 9.7 km/h 70% 0 mm
15:44 4.4 °C -0.6 °C 1019.2 hPa WSW 6.4 km/h 14.5 km/h 70% 0 mm
15:49 4.4 °C -0.6 °C 1019.2 hPa WSW 6.4 km/h 14.5 km/h 70% 0 mm
15:54 4.4 °C -0.6 °C 1018.8 hPa SW 6.4 km/h 11.3 km/h 70% 0 mm
15:59 4.4 °C -0.6 °C 1018.8 hPa SW 4.8 km/h 9.7 km/h 70% 0 mm
16:04 4.4 °C -0.4 °C 1018.8 hPa SW 4.8 km/h 9.7 km/h 71% 0 mm
16:09 4.4 °C -0.3 °C 1018.8 hPa SW 3.2 km/h 8 km/h 71% 0 mm
16:14 4.4 °C -0.6 °C 1018.8 hPa West 3.2 km/h 9.7 km/h 70% 0 mm
16:19 4.4 °C -0.6 °C 1018.8 hPa SSW 3.2 km/h 9.7 km/h 70% 0 mm
16:24 4.5 °C -0.5 °C 1018.8 hPa SSW 3.2 km/h 11.3 km/h 70% 0 mm
16:29 4.5 °C -0.5 °C 1018.5 hPa SW 6.4 km/h 11.3 km/h 70% 0 mm
16:34 4.6 °C -0.3 °C 1018.5 hPa SSW 4.8 km/h 8 km/h 71% 0 mm
16:39 4.7 °C -0.3 °C 1018.5 hPa SW 6.4 km/h 9.7 km/h 70% 0 mm
16:44 4.7 °C -0.3 °C 1018.5 hPa SW 4.8 km/h 9.7 km/h 70% 0 mm
16:49 4.8 °C -0.2 °C 1018.5 hPa SW 3.2 km/h 8 km/h 70% 0 mm
16:54 4.8 °C -0.2 °C 1018.5 hPa SW 4.8 km/h 9.7 km/h 70% 0 mm
16:59 4.7 °C -0.3 °C 1018.5 hPa SW 6.4 km/h 12.9 km/h 70% 0 mm
17:04 4.7 °C -0.3 °C 1018.5 hPa SW 4.8 km/h 11.3 km/h 70% 0 mm
17:09 4.6 °C -0.2 °C 1018.5 hPa SSW 6.4 km/h 11.3 km/h 71% 0 mm
17:14 4.6 °C -0.4 °C 1018.5 hPa WSW 4.8 km/h 11.3 km/h 70% 0 mm
17:19 4.6 °C -0.4 °C 1018.5 hPa SW 6.4 km/h 11.3 km/h 70% 0 mm
17:24 4.6 °C -0.4 °C 1018.5 hPa WSW 6.4 km/h 12.9 km/h 70% 0 mm
17:29 4.7 °C -0.3 °C 1018.2 hPa WSW 4.8 km/h 8 km/h 70% 0 mm
17:34 4.7 °C -0.3 °C 1018.2 hPa WSW 4.8 km/h 14.5 km/h 70% 0 mm
17:39 4.7 °C -0.3 °C 1018.2 hPa West 1.6 km/h 9.7 km/h 70% 0 mm
17:44 4.6 °C -0.4 °C 1018.2 hPa WSW 9.7 km/h 11.3 km/h 70% 0 mm
17:49 4.5 °C -0.3 °C 1018.2 hPa WSW 4.8 km/h 11.3 km/h 71% 0 mm
17:54 4.4 °C -0.3 °C 1018.2 hPa West 4.8 km/h 9.7 km/h 71% 0 mm
17:59 4.4 °C -0.3 °C 1018.2 hPa West 3.2 km/h 8 km/h 71% 0 mm
18:04 4.4 °C -0.3 °C 1018.2 hPa SW 4.8 km/h 6.4 km/h 71% 0 mm
18:09 4.4 °C -0.3 °C 1018.2 hPa WSW 3.2 km/h 6.4 km/h 71% 0 mm
18:14 4.4 °C -0.3 °C 1017.8 hPa Calm   8 km/h 71% 0 mm
18:19 4.4 °C -0.3 °C 1017.8 hPa SW 3.2 km/h 6.4 km/h 71% 0 mm
18:24 4.4 °C -0.4 °C 1017.8 hPa SW 3.2 km/h 4.8 km/h 71% 0 mm
18:29 4.4 °C -0.4 °C 1017.8 hPa SSW 1.6 km/h 6.4 km/h 71% 0 mm
18:34 4.3 °C -0.3 °C 1017.8 hPa SW 4.8 km/h 6.4 km/h 72% 0 mm
18:39 4.3 °C -0.3 °C 1017.8 hPa Calm   6.4 km/h 72% 0 mm
18:44 4.3 °C -0.3 °C 1017.8 hPa SW 4.8 km/h 4.8 km/h 72% 0 mm
18:49 4.2 °C -0.4 °C 1017.8 hPa SW 1.6 km/h 6.4 km/h 72% 0 mm
18:54 4.2 °C -0.4 °C 1017.8 hPa SW 1.6 km/h 6.4 km/h 72% 0 mm
18:59 4.2 °C -0.4 °C 1017.8 hPa WSW 1.6 km/h 6.4 km/h 72% 0 mm
19:04 4.1 °C -0.5 °C 1017.8 hPa WSW 1.6 km/h 6.4 km/h 72% 0 mm
19:09 4.1 °C -0.6 °C 1017.8 hPa WSW 1.6 km/h 4.8 km/h 72% 0 mm
19:14 3.9 °C -0.4 °C 1017.8 hPa WSW 1.6 km/h 4.8 km/h 73% 0 mm
19:19 3.9 °C -0.5 °C 1017.8 hPa SW 3.2 km/h 4.8 km/h 73% 0 mm
19:24 3.8 °C -0.6 °C 1017.8 hPa SW 3.2 km/h 4.8 km/h 73% 0 mm
19:29 3.8 °C -0.6 °C 1017.8 hPa SW 4.8 km/h 4.8 km/h 73% 0 mm
19:34 3.8 °C -0.6 °C 1017.8 hPa SSW 4.8 km/h 6.4 km/h 73% 0 mm
19:39 3.7 °C -0.5 °C 1017.8 hPa SW 1.6 km/h 6.4 km/h 74% 0 mm
19:44 3.7 °C -0.6 °C 1017.8 hPa SSW 6.4 km/h 6.4 km/h 74% 0 mm
19:49 3.6 °C -0.6 °C 1017.8 hPa SW 1.6 km/h 8 km/h 74% 0 mm
19:54 3.6 °C -0.7 °C 1017.8 hPa SW 3.2 km/h 8 km/h 74% 0 mm
19:59 3.6 °C -0.7 °C 1017.8 hPa SW 3.2 km/h 6.4 km/h 74% 0 mm
20:04 3.5 °C -0.7 °C 1017.8 hPa SW 3.2 km/h 6.4 km/h 74% 0 mm
20:09 3.5 °C -0.5 °C 1017.8 hPa SW 3.2 km/h 6.4 km/h 75% 0 mm
20:14 3.4 °C -0.6 °C 1017.8 hPa SW 1.6 km/h 4.8 km/h 75% 0 mm
20:19 3.4 °C -0.6 °C 1017.8 hPa SW 1.6 km/h 4.8 km/h 75% 0 mm
20:24 3.4 °C -0.6 °C 1017.8 hPa SW 1.6 km/h 4.8 km/h 75% 0 mm
20:29 3.4 °C -0.6 °C 1017.8 hPa SW 1.6 km/h 4.8 km/h 75% 0 mm
20:34 3.4 °C -0.6 °C 1017.8 hPa Calm   3.2 km/h 75% 0 mm
20:39 3.3 °C -0.7 °C 1017.8 hPa Calm     75% 0 mm
20:44 3.3 °C -0.7 °C 1017.8 hPa Calm     75% 0 mm
20:49 3.3 °C -0.7 °C 1017.8 hPa Calm     75% 0 mm
20:54 3.3 °C -0.5 °C 1017.5 hPa Calm     76% 0 mm
20:59 3.3 °C -0.6 °C 1017.5 hPa SSW 1.6 km/h 6.4 km/h 76% 0 mm
21:04 3.3 °C -0.6 °C 1017.5 hPa SSW 3.2 km/h 6.4 km/h 76% 0 mm
21:09 3.2 °C -0.6 °C 1017.5 hPa WSW 3.2 km/h 6.4 km/h 76% 0 mm
21:14 3.2 °C -0.6 °C 1017.5 hPa SW 1.6 km/h 6.4 km/h 76% 0 mm
21:19 3.2 °C -0.6 °C 1017.5 hPa SW 3.2 km/h 4.8 km/h 76% 0 mm
21:24 3.2 °C -0.6 °C 1017.5 hPa SSW 1.6 km/h 4.8 km/h 76% 0 mm
21:29 3.3 °C -0.6 °C 1017.5 hPa WSW 3.2 km/h 6.4 km/h 76% 0 mm
21:34 3.3 °C -0.6 °C 1017.5 hPa SW 3.2 km/h 6.4 km/h 76% 0 mm
21:39 3.3 °C -0.6 °C 1017.5 hPa SW 1.6 km/h 6.4 km/h 76% 0 mm
21:44 3.3 °C -0.6 °C 1017.5 hPa Calm   3.2 km/h 76% 0 mm
21:49 3.3 °C -0.6 °C 1017.5 hPa Calm     76% 0 mm
21:54 3.2 °C -0.6 °C 1017.5 hPa Calm     76% 0 mm
21:59 3.3 °C -0.6 °C 1017.5 hPa Calm     76% 0 mm
22:04 3.3 °C -0.5 °C 1017.5 hPa Calm   4.8 km/h 76% 0 mm
22:09 3.3 °C -0.6 °C 1017.5 hPa WSW 1.6 km/h 4.8 km/h 76% 0 mm
22:14 3.3 °C -0.5 °C 1017.5 hPa WSW 1.6 km/h 4.8 km/h 76% 0 mm
22:19 3.3 °C -0.5 °C 1017.5 hPa WSW 1.6 km/h 3.2 km/h 76% 0 mm
22:24 3.3 °C -0.5 °C 1017.5 hPa Calm   3.2 km/h 76% 0 mm
22:29 3.3 °C -0.5 °C 1017.5 hPa Calm     76% 0 mm
22:34 3.4 °C -0.4 °C 1017.2 hPa Calm     76% 0 mm
22:44 3.4 °C -0.4 °C 1017.2 hPa WSW 1.6 km/h 3.2 km/h 76% 0 mm
22:49 3.4 °C -0.4 °C 1017.2 hPa Calm   4.8 km/h 76% 0 mm
22:54 3.4 °C -0.4 °C 1017.2 hPa WSW 1.6 km/h 4.8 km/h 76% 0 mm
22:59 3.3 °C -0.3 °C 1017.2 hPa Calm   1.6 km/h 77% 0 mm
23:04 3.3 °C -0.3 °C 1017.2 hPa Calm   3.2 km/h 77% 0 mm
23:09 3.3 °C -0.3 °C 1017.2 hPa Calm   3.2 km/h 77% 0 mm
23:14 3.3 °C -0.4 °C 1017.2 hPa Calm   1.6 km/h 77% 0 mm
23:19 3.3 °C -0.4 °C 1017.2 hPa Calm     77% 0 mm
23:24 3.3 °C -0.3 °C 1016.8 hPa Calm     77% 0 mm
23:29 3.4 °C -0.3 °C 1017.2 hPa Calm     77% 0 mm
23:34 3.4 °C -0.2 °C 1017.2 hPa Calm     77% 0 mm
23:39 3.4 °C -0.2 °C 1017.2 hPa Calm   3.2 km/h 77% 0 mm
23:44 3.4 °C -0.3 °C 1016.8 hPa Calm   3.2 km/h 77% 0 mm
23:49 3.3 °C -0.3 °C 1016.5 hPa Calm   3.2 km/h 77% 0 mm
23:54 3.3 °C -0.4 °C 1016.5 hPa Calm   3.2 km/h 77% 0 mm
23:59 3.2 °C -0.5 °C 1016.5 hPa SW 1.6 km/h 3.2 km/h 77% 0 mm
Buffalo, New York, USA
Compliments of Weather Underground - 2.5 mb